Time;durP1;ratioP1;P1;durP2;ratioP2;P2;SDS_P1;SDS_P2;PMS_P1;PMS_P2;Temp;Humidity;BMP_temperature;BMP_pressure;BME280_temperature;BME280_humidity;BME280_pressure;Samples;Min_cycle;Max_cycle;Signal;HPM_P1;HPM_P2
2022/07/26 00:04:35;;;;;;;10.20;9.02;;;30.20;21.40;;;;;;21261336;27;20055;-55
2022/07/26 00:14:36;;;;;;;13.25;10.55;;;30.20;23.20;;;;;;21260038;27;20255;-57
2022/07/26 00:24:38;;;;;;;14.98;12.40;;;30.00;24.80;;;;;;21240517;27;20051;-55
2022/07/26 00:34:40;;;;;;;13.15;11.75;;;29.90;27.60;;;;;;21257380;27;20079;-55
2022/07/26 00:44:43;;;;;;;11.10;8.80;;;29.80;28.00;;;;;;21257596;27;20437;-55
2022/07/26 00:54:45;;;;;;;13.20;10.30;;;29.50;26.90;;;;;;21257318;27;20517;-55
2022/07/26 01:04:47;;;;;;;11.52;8.23;;;29.40;29.90;;;;;;21255731;27;20126;-54
2022/07/26 01:14:49;;;;;;;10.40;8.05;;;29.10;27.90;;;;;;21255188;27;20050;-55
2022/07/26 01:24:55;;;;;;;11.23;8.15;;;28.90;27.20;;;;;;21254459;27;20047;-54
2022/07/26 01:34:58;;;;;;;9.95;7.25;;;28.60;27.80;;;;;;21253144;27;20499;-56
2022/07/26 01:45:03;;;;;;;11.77;7.65;;;28.40;28.70;;;;;;21251628;27;20051;-57
2022/07/26 01:55:06;;;;;;;8.05;6.15;;;28.10;29.80;;;;;;21251444;27;20043;-55
2022/07/26 02:05:11;;;;;;;9.05;5.25;;;27.90;30.60;;;;;;21250920;27;20054;-55
2022/07/26 02:15:15;;;;;;;11.05;5.05;;;27.60;32.00;;;;;;21251128;27;20403;-55
2022/07/26 02:25:19;;;;;;;9.13;4.88;;;27.30;32.80;;;;;;21250326;27;20129;-56
2022/07/26 02:35:23;;;;;;;7.47;4.25;;;27.20;32.70;;;;;;21250049;27;20205;-55
2022/07/26 02:45:29;;;;;;;5.72;4.22;;;27.10;32.70;;;;;;21248482;27;20051;-57
2022/07/26 02:55:30;;;;;;;4.60;3.92;;;27.00;33.20;;;;;;21247670;27;20055;-56
2022/07/26 03:05:31;;;;;;;8.60;5.00;;;26.80;33.90;;;;;;21247366;28;20051;-55
2022/07/26 03:15:34;;;;;;;6.05;4.03;;;26.60;33.90;;;;;;21246805;28;20571;-56
2022/07/26 03:25:36;;;;;;;6.18;3.90;;;26.40;34.10;;;;;;21246443;28;20082;-55
2022/07/26 03:35:38;;;;;;;7.82;3.78;;;26.20;35.50;;;;;;21245957;28;20061;-54
2022/07/26 03:45:41;;;;;;;4.85;3.80;;;26.20;36.00;;;;;;21245524;28;20047;-55
2022/07/26 04:06:05;;;;;;;4.60;3.85;;;26.00;36.40;;;;;;21245585;27;20051;-56
2022/07/26 04:16:07;;;;;;;6.13;3.53;;;25.80;36.70;;;;;;21259782;27;20047;-55
2022/07/26 04:26:09;;;;;;;10.15;3.97;;;25.70;36.90;;;;;;21259981;27;20082;-54
2022/07/26 04:36:10;;;;;;;;;;;25.60;37.50;;;;;;21259399;27;20078;-57
2022/07/26 04:46:12;;;;;;;5.40;3.60;;;25.60;37.90;;;;;;21257859;27;20019;-57
2022/07/26 04:56:29;;;;;;;;;;;25.60;38.20;;;;;;21257442;27;20047;-57
2022/07/26 05:06:31;;;;;;;15.18;5.00;;;25.60;38.10;;;;;;21256237;27;19943;-56
2022/07/26 05:16:32;;;;;;;10.98;4.07;;;25.60;38.40;;;;;;21255005;27;20043;-54
2022/07/26 05:26:35;;;;;;;6.05;3.55;;;;;;;;;;21254215;27;20059;-54
2022/07/26 05:36:37;;;;;;;6.45;3.88;;;;;;;;;;21253834;27;20487;-55
2022/07/26 05:46:40;;;;;;;6.63;3.25;;;;;;;;;;21253080;27;20062;-55
2022/07/26 05:56:42;;;;;;;7.15;3.67;;;;;;;;;;21251651;27;20043;-55
2022/07/26 06:06:44;;;;;;;6.95;3.53;;;;;;;;;;21251313;27;20103;-56
2022/07/26 06:16:46;;;;;;;7.65;3.42;;;;;;;;;;21250713;27;20047;-55
2022/07/26 06:26:51;;;;;;;11.80;3.80;;;;;;;;;;21250492;27;20079;-55
2022/07/26 06:36:54;;;;;;;6.55;2.95;;;;;;;;;;21248744;27;20403;-53
2022/07/26 06:46:56;;;;;;;9.05;3.42;;;;;;;;;;21249840;27;20047;-54
2022/07/26 06:56:58;;;;;;;7.45;3.70;;;;;;;;;;21249004;27;20051;-54
2022/07/26 07:07:04;;;;;;;7.65;3.65;;;;;;;;;;21248316;28;20062;-55
2022/07/26 07:17:07;;;;;;;6.32;2.88;;;;;;;;;;21247731;28;20092;-54
2022/07/26 07:27:10;;;;;;;13.02;3.70;;;;;;;;;;21247195;28;20058;-54
2022/07/26 07:37:12;;;;;;;6.68;3.40;;;;;;;;;;21247183;28;20051;-55
2022/07/26 07:47:14;;;;;;;8.30;3.78;;;;;;;;;;21258755;27;20051;-54
2022/07/26 07:57:16;;;;;;;9.18;4.05;;;;;;;;;;21262967;27;20513;-55
2022/07/26 08:07:19;;;;;;;9.48;5.00;;;;;;;;;;21242431;27;20081;-55
2022/07/26 08:17:21;;;;;;;7.63;3.80;;;;;;;;;;21259714;27;20047;-54
2022/07/26 08:27:23;;;;;;;7.68;4.57;;;;;;;;;;21260306;27;20043;-56
2022/07/26 08:37:25;;;;;;;10.05;4.05;;;;;;;;;;21240487;27;20054;-55
2022/07/26 08:47:27;;;;;;;6.68;4.03;;;;;;;;;;21257057;27;20051;-56
2022/07/26 08:57:29;;;;;;;9.10;4.32;;;;;;;;;;21256338;27;20074;-57
2022/07/26 09:07:32;;;;;;;6.72;3.83;;;;;;;;;;21255539;27;20111;-55
2022/07/26 09:17:39;;;;;;;9.07;4.78;;;;;;;;;;21254830;27;20046;-56
2022/07/26 09:27:42;;;;;;;7.95;3.70;;;;;;;;;;21254499;27;20064;-55
2022/07/26 09:37:45;;;;;;;9.02;4.03;;;;;;;;;;21253819;27;20423;-56
2022/07/26 09:47:47;;;;;;;7.03;3.85;;;;;;;;;;21253191;27;20188;-55
2022/07/26 09:57:53;;;;;;;7.70;3.10;;;;;;;;;;21252576;27;20047;-55
2022/07/26 10:07:58;;;;;;;7.32;3.42;;;;;;;;;;21250080;27;20043;-55
2022/07/26 10:18:00;;;;;;;6.10;3.55;;;;;;;;;;21250887;27;20411;-55
2022/07/26 10:28:02;;;;;;;6.47;3.70;;;;;;;;;;21249811;27;20078;-56
2022/07/26 10:38:06;;;;;;;6.57;3.22;;;;;;;;;;21248709;27;20182;-56
2022/07/26 10:48:11;;;;;;;5.75;2.80;;;;;;;;;;21248184;27;20099;-55
2022/07/26 10:58:13;;;;;;;4.22;2.08;;;;;;;;;;21249269;27;20178;-54
2022/07/26 11:08:15;;;;;;;6.45;2.92;;;;;;;;;;21247662;28;20047;-56
2022/07/26 11:18:26;;;;;;;4.97;2.85;;;;;;;;;;21253016;27;20049;-56
2022/07/26 11:28:29;;;;;;;8.15;3.30;;;;;;;;;;21264638;27;20055;-55
2022/07/26 11:38:44;;;;;;;6.28;3.70;;;;;;;;;;21263492;27;20051;-57
2022/07/26 11:48:52;;;;;;;5.00;3.33;;;;;;;;;;21263228;27;20047;-55
2022/07/26 11:58:55;;;;;;;8.00;3.30;;;;;;;;;;21261440;27;20124;-56
2022/07/26 12:08:58;;;;;;;6.95;3.65;;;;;;;;;;21260488;27;20142;-55
2022/07/26 12:19:00;;;;;;;5.20;3.42;;;;;;;;;;21259623;27;20077;-55
2022/07/26 12:39:24;;;;;;;5.20;3.03;;;;;;;;;;21257765;27;20055;-55
2022/07/26 12:49:26;;;;;;;3.55;2.90;;;;;;;;;;21257466;27;20092;-55
2022/07/26 12:59:28;;;;;;;4.75;2.80;;;;;;;;;;21255430;27;20086;-56
2022/07/26 13:09:32;;;;;;;5.95;3.10;;;;;;;;;;21254850;27;20047;-57
2022/07/26 13:19:34;;;;;;;4.95;3.10;;;;;;;;;;21256270;27;20047;-55
2022/07/26 13:29:37;;;;;;;4.75;3.20;;;;;;;;;;21254074;27;20402;-56
2022/07/26 13:39:39;;;;;;;4.45;2.60;;;;;;;;;;21252222;27;20047;-54
2022/07/26 13:49:41;;;;;;;9.02;3.47;;;;;;;;;;21251551;27;20138;-55
2022/07/26 13:59:44;;;;;;;5.13;3.50;;;;;;;;;;21251471;27;20078;-55
2022/07/26 14:09:46;;;;;;;5.68;2.55;;;;;;;;;;21250558;27;20062;-56
2022/07/26 14:19:48;;;;;;;4.72;2.67;;;;;;;;;;21249804;27;20053;-55
2022/07/26 14:29:51;;;;;;;3.58;2.80;;;;;;;;;;21249219;27;20095;-55
2022/07/26 14:39:53;;;;;;;3.63;2.70;;;;;;;;;;21248478;27;20461;-55
2022/07/26 14:49:55;;;;;;;3.80;2.92;;;;;;;;;;21247259;27;20384;-56
2022/07/26 14:59:58;;;;;;;4.63;3.17;;;;;;;;;;21248360;27;20091;-57
2022/07/26 15:10:00;;;;;;;3.88;2.78;;;;;;;;;;21246757;28;20054;-54
2022/07/26 15:20:03;;;;;;;4.28;2.47;;;;;;;;;;21246800;28;20047;-56
2022/07/26 15:30:07;;;;;;;4.00;2.50;;;;;;;;;;21246825;28;20069;-56
2022/07/26 15:40:10;;;;;;;2.92;2.60;;;;;;;;;;21247063;28;20047;-56
2022/07/26 15:50:12;;;;;;;4.00;2.70;;;;;;;;;;21245047;28;20054;-56
2022/07/26 16:00:15;;;;;;;3.55;2.58;;;;;;;;;;21245079;28;20054;-55
2022/07/26 16:10:17;;;;;;;3.45;2.55;;;;;;;;;;21259432;27;20373;-57
2022/07/26 16:20:20;;;;;;;4.53;2.75;;;;;;;;;;21259023;27;20047;-55
2022/07/26 16:30:22;;;;;;;10.00;4.22;;;;;;;;;;21258935;27;20051;-55
2022/07/26 16:40:24;;;;;;;2.90;2.13;;;;;;;;;;21257957;27;20051;-54
2022/07/26 16:50:26;;;;;;;2.70;2.20;;;;;;;;;;21258001;27;20065;-55
2022/07/26 17:00:28;;;;;;;3.45;2.63;;;;;;;;;;21257875;27;20188;-56
2022/07/26 17:10:31;;;;;;;3.63;2.85;;;;;;;;;;21255599;27;20058;-55
2022/07/26 17:20:32;;;;;;;5.18;3.20;;;;;;;;;;21253726;27;20047;-57
2022/07/26 17:30:35;;;;;;;3.30;1.90;;;;;;;;;;21235023;27;20082;-56
2022/07/26 17:40:37;;;;;;;3.80;2.60;;;;;;;;;;21253339;27;20104;-57
2022/07/26 17:50:39;;;;;;;4.07;3.05;;;;;;;;;;21252076;27;20518;-55
2022/07/26 18:00:41;;;;;;;5.47;2.25;;;;;;;;;;21250864;27;20047;-55
2022/07/26 18:10:43;;;;;;;3.33;2.30;;;;;;;;;;21251043;27;20055;-53
2022/07/26 18:20:45;;;;;;;2.55;1.90;;;;;;;;;;21249964;27;20047;-56
2022/07/26 18:30:48;;;;;;;11.95;10.70;;;;;;;;;;21248578;27;20051;-57
2022/07/26 18:40:51;;;;;;;4.78;4.10;;;;;;;;;;21249221;27;20521;-59
2022/07/26 18:50:54;;;;;;;5.45;1.77;;;;;;;;;;21248752;27;20131;-58
2022/07/26 19:00:56;;;;;;;2.53;1.95;;;;;;;;;;21248680;27;20449;-57
2022/07/26 19:10:58;;;;;;;2.60;2.17;;;;;;;;;;21246820;28;20139;-58
2022/07/26 19:21:00;;;;;;;4.05;2.00;;;;;;;;;;21247840;28;20516;-56
2022/07/26 19:31:03;;;;;;;4.53;2.10;;;;;;;;;;21246853;28;20101;-56
2022/07/26 19:41:06;;;;;;;3.83;1.70;;;;;;;;;;21254770;27;20096;-55
2022/07/26 19:51:08;;;;;;;4.72;2.25;;;;;;;;;;21261635;27;20047;-56
2022/07/26 20:01:11;;;;;;;3.13;1.52;;;;;;;;;;21260751;27;20043;-56
2022/07/26 20:11:14;;;;;;;4.38;2.20;;;;;;;;;;21260252;27;20055;-58
2022/07/26 20:21:16;;;;;;;3.35;2.47;;;;;;;;;;21260349;27;20055;-54
2022/07/26 20:31:18;;;;;;;4.40;3.25;;;;;;;;;;21259365;27;20074;-56
2022/07/26 20:41:20;;;;;;;5.22;3.65;;;;;;;;;;21258059;27;20047;-56
2022/07/26 20:51:23;;;;;;;3.90;1.90;;;;;;;;;;21256170;27;20477;-57
2022/07/26 21:01:25;;;;;;;3.95;2.00;;;;;;;;;;21255909;27;20054;-56
2022/07/26 21:11:28;;;;;;;4.90;1.70;;;;;;;;;;21255250;27;20086;-57
2022/07/26 21:21:30;;;;;;;8.00;5.90;;;;;;;;;;21255617;27;20115;-56
2022/07/26 21:31:32;;;;;;;11.80;6.97;;;;;;;;;;21254538;27;20047;-56
2022/07/26 21:41:33;;;;;;;4.85;1.67;;;;;;;;;;21253624;27;20495;-56
2022/07/26 21:51:35;;;;;;;4.32;1.58;;;;;;;;;;21252952;27;20046;-56
2022/07/26 22:01:37;;;;;;;4.25;1.95;;;;;;;;;;21253016;27;20444;-57
2022/07/26 22:11:39;;;;;;;3.97;1.85;;;;;;;;;;21251081;27;20047;-57
2022/07/26 22:21:41;;;;;;;4.28;1.95;;;;;;;;;;21249476;27;20112;-56
2022/07/26 22:31:43;;;;;;;5.13;1.65;;;;;;;;;;21250841;27;20542;-56
2022/07/26 22:41:45;;;;;;;3.33;2.00;;;;;;;;;;21249480;27;20050;-56
2022/07/26 22:51:47;;;;;;;4.32;1.70;;;;;;;;;;21230400;27;20133;-55
2022/07/26 23:01:49;;;;;;;4.75;1.80;;;;;;;;;;21249549;27;20517;-56
2022/07/26 23:11:51;;;;;;;8.88;1.63;;;;;;;;;;21249648;27;20047;-58
2022/07/26 23:21:53;;;;;;;4.90;1.33;;;;;;;;;;21264743;27;20078;-60
2022/07/26 23:31:55;;;;;;;4.97;1.83;;;;;;;;;;21245805;27;20486;-54
2022/07/26 23:42:01;;;;;;;3.92;1.98;;;;;;;;;;21262800;27;20051;-55
2022/07/26 23:52:03;;;;;;;2.63;1.60;;;;;;;;;;21262593;27;20044;-55
